This is the latest recevied weather packets stored in our database for station/object JH7UAX-10. If no packets are shown the sender has not sent any weather packets the latest 10 day(s).
| Time | Temp. | Humidity | Pressure | Rain* | Wind** | Luminosity | Snow |
|---|---|---|---|---|---|---|---|
| 1778064306 | 15.56° C | 67% | 1028.6 hPa | 0 mm | - | - | - |
| 1778063880 | 16.11° C | 66% | 1028.4 hPa | 0 mm | - | - | - |
| 1778062980 | 16.11° C | 65% | 1028.4 hPa | 0 mm | - | - | - |
| 1778062079 | 16.11° C | 64% | 1028.3 hPa | 0 mm | - | - | - |
| 1778061605 | 16.67° C | 65% | 1028.4 hPa | 0 mm | - | - | - |
| 1778061179 | 16.67° C | 65% | 1028.3 hPa | 0 mm | - | - | - |
| 1778060705 | 17.22° C | 63% | 1028.3 hPa | 0 mm | - | - | - |
| 1778060279 | 17.22° C | 62% | 1028.3 hPa | 0 mm | - | - | - |
| 1778059807 | 17.78° C | 60% | 1028.4 hPa | 0 mm | - | - | - |
| 1778059379 | 17.78° C | 60% | 1028.4 hPa | 0 mm | - | - | - |
| 1778058907 | 17.78° C | 59% | 1028.4 hPa | 0 mm | - | - | - |
| 1778058479 | 18.33° C | 59% | 1028.4 hPa | 0 mm | - | - | - |
| 1778058006 | 18.33° C | 58% | 1028.4 hPa | 0 mm | - | - | - |
| 1778057578 | 18.89° C | 55% | 1028.5 hPa | 0 mm | - | - | - |
| 1778057106 | 18.89° C | 56% | 1028.4 hPa | 0 mm | - | - | - |
| 1778056678 | 19.44° C | 56% | 1028.5 hPa | 0 mm | - | - | - |
| 1778056206 | 19.44° C | 54% | 1028.5 hPa | 0 mm | - | - | - |
| 1778055780 | 19.44° C | 54% | 1028.5 hPa | 0 mm | - | - | - |
| 1778055305 | 19.44° C | 54% | 1028.4 hPa | 0 mm | - | - | - |
| 1778054880 | 19.44° C | 54% | 1028.5 hPa | 0 mm | - | - | - |
| 1778054405 | 19.44° C | 56% | 1028.6 hPa | 0 mm | - | - | - |
| 1778053979 | 20° C | 55% | 1028.5 hPa | 0 mm | - | - | - |
| 1778053079 | 21.11° C | 48% | 1028.4 hPa | 0 mm | - | - | - |
| 1778052605 | 21.11° C | 49% | 1028.5 hPa | 0 mm | - | - | - |
| 1778052179 | 21.11° C | 49% | 1028.4 hPa | 0 mm | - | - | - |
* Rain latest hour (hover to see other rain measurements)
** Current wind speed in m/s (hover to see current wind gust speed)